Time;durP1;ratioP1;P1;durP2;ratioP2;P2;SDS_P1;SDS_P2;PMS_P1;PMS_P2;Temp;Humidity;BMP_temperature;BMP_pressure;BME280_temperature;BME280_humidity;BME280_pressure;Samples;Min_cycle;Max_cycle;Signal;HPM_P1;HPM_P2
2023/12/28 00:00:31;;;;;;;3.40;1.80;;;;;;;;;;10326971;28;20253;-70
2023/12/28 00:05:31;;;;;;;3.93;1.90;;;;;;;;;;10326587;28;20292;-70
2023/12/28 00:10:31;;;;;;;2.00;1.60;;;;;;;;;;10325158;28;20730;-70
2023/12/28 00:15:31;;;;;;;2.40;1.60;;;;;;;;;;10326410;28;20956;-70
2023/12/28 00:20:32;;;;;;;2.60;1.53;;;;;;;;;;10326582;28;20187;-70
2023/12/28 00:25:32;;;;;;;2.30;1.27;;;;;;;;;;10326573;28;20222;-70
2023/12/28 00:30:32;;;;;;;1.57;1.30;;;;;;;;;;10325150;28;20190;-70
2023/12/28 00:35:33;;;;;;;1.33;1.00;;;;;;;;;;10332890;28;20220;-71
2023/12/28 00:40:33;;;;;;;1.90;1.30;;;;;;;;;;10333468;28;20546;-71
2023/12/28 00:45:33;;;;;;;1.10;1.00;;;;;;;;;;10333691;28;20205;-71
2023/12/28 00:50:34;;;;;;;0.73;0.73;;;;;;;;;;10331974;28;20214;-71
2023/12/28 00:55:34;;;;;;;0.80;0.80;;;;;;;;;;10333116;28;20210;-71
2023/12/28 01:00:34;;;;;;;1.43;1.10;;;;;;;;;;10333419;28;20622;-71
2023/12/28 01:05:34;;;;;;;0.60;0.60;;;;;;;;;;10332404;28;20256;-71
2023/12/28 01:10:35;;;;;;;2.50;1.00;;;;;;;;;;10331343;28;20252;-71
2023/12/28 01:15:35;;;;;;;0.90;0.90;;;;;;;;;;10331039;28;20280;-71
2023/12/28 01:20:35;;;;;;;1.67;0.90;;;;;;;;;;10332262;28;20202;-71
2023/12/28 01:25:35;;;;;;;0.87;0.80;;;;;;;;;;10330868;28;20206;-71
2023/12/28 01:30:36;;;;;;;0.80;0.80;;;;;;;;;;10328741;28;20198;-71
2023/12/28 01:35:37;;;;;;;0.70;0.70;;;;;;;;;;10331803;28;20664;-71
2023/12/28 01:40:37;;;;;;;1.80;1.07;;;;;;;;;;10331483;28;20212;-70
2023/12/28 01:45:37;;;;;;;0.93;0.90;;;;;;;;;;10328118;28;20212;-70
2023/12/28 01:50:37;;;;;;;0.83;0.83;;;;;;;;;;10331397;28;20281;-70
2023/12/28 01:55:37;;;;;;;3.07;1.00;;;;;;;;;;10329485;28;20608;-70
2023/12/28 02:00:38;;;;;;;1.77;1.00;;;;;;;;;;10329444;28;20557;-70
2023/12/28 02:05:39;;;;;;;1.20;0.90;;;;;;;;;;10326829;28;20328;-70
2023/12/28 02:10:40;;;;;;;0.70;0.70;;;;;;;;;;10329271;28;20340;-70
2023/12/28 02:15:40;;;;;;;1.83;0.90;;;;;;;;;;10328888;28;20376;-70
2023/12/28 02:20:41;;;;;;;1.57;0.90;;;;;;;;;;10328765;28;20206;-70
2023/12/28 02:25:42;;;;;;;1.80;0.90;;;;;;;;;;10327619;28;20632;-70
2023/12/28 02:30:42;;;;;;;1.97;0.90;;;;;;;;;;10328437;28;20206;-70
2023/12/28 02:35:52;;;;;;;0.90;0.90;;;;;;;;;;10329320;28;21003;-70
2023/12/28 02:40:52;;;;;;;0.80;0.80;;;;;;;;;;10329248;28;20279;-70
2023/12/28 02:45:53;;;;;;;0.97;0.97;;;;;;;;;;10327160;28;20820;-70
2023/12/28 02:50:53;;;;;;;0.90;0.90;;;;;;;;;;10329001;28;20680;-70
2023/12/28 02:55:53;;;;;;;0.80;0.80;;;;;;;;;;10327748;28;20743;-70
2023/12/28 03:00:53;;;;;;;0.83;0.83;;;;;;;;;;10327390;28;20193;-70
2023/12/28 03:05:53;;;;;;;1.00;0.90;;;;;;;;;;10326235;28;20257;-70
2023/12/28 03:10:55;;;;;;;0.80;0.80;;;;;;;;;;10326991;28;20178;-70
2023/12/28 03:15:55;;;;;;;0.93;0.80;;;;;;;;;;10326757;28;20214;-70
2023/12/28 03:20:55;;;;;;;0.80;0.80;;;;;;;;;;10326050;28;20602;-70
2023/12/28 03:25:55;;;;;;;2.13;1.00;;;;;;;;;;10326418;28;20237;-70
2023/12/28 03:30:56;;;;;;;2.00;1.40;;;;;;;;;;10326533;28;20684;-70
2023/12/28 03:35:57;;;;;;;0.90;0.90;;;;;;;;;;10326289;28;20304;-70
2023/12/28 03:40:58;;;;;;;1.30;1.10;;;;;;;;;;10325623;28;20200;-70
2023/12/28 03:45:58;;;;;;;1.20;1.10;;;;;;;;;;10325973;28;20221;-70
2023/12/28 03:50:58;;;;;;;1.20;1.10;;;;;;;;;;10326026;28;20190;-70
2023/12/28 03:55:58;;;;;;;2.90;1.20;;;;;;;;;;10325348;28;20213;-70
2023/12/28 04:00:59;;;;;;;1.23;1.13;;;;;;;;;;10324569;28;20252;-70
2023/12/28 04:06:00;;;;;;;1.50;1.40;;;;;;;;;;10329725;28;20230;-70
2023/12/28 04:11:00;;;;;;;1.63;1.37;;;;;;;;;;10334895;28;20252;-70
2023/12/28 04:16:00;;;;;;;6.77;1.40;;;;;;;;;;10333395;28;20214;-70
2023/12/28 04:21:00;;;;;;;1.57;1.20;;;;;;;;;;10333021;28;20186;-70
2023/12/28 04:26:00;;;;;;;1.77;1.40;;;;;;;;;;10334095;28;20335;-70
2023/12/28 04:31:04;;;;;;;3.67;1.70;;;;;;;;;;10333323;28;20190;-70
2023/12/28 04:36:08;;;;;;;1.60;1.47;;;;;;;;;;10330563;28;20218;-70
2023/12/28 04:41:09;;;;;;;1.77;1.27;;;;;;;;;;10332241;28;20182;-70
2023/12/28 04:46:09;;;;;;;1.60;1.20;;;;;;;;;;10329907;28;20585;-70
2023/12/28 04:51:09;;;;;;;1.73;1.37;;;;;;;;;;10333232;28;20234;-70
2023/12/28 04:56:09;;;;;;;1.43;1.33;;;;;;;;;;10330234;28;20232;-70
2023/12/28 05:01:10;;;;;;;1.40;1.30;;;;;;;;;;10332982;28;20445;-70
2023/12/28 05:06:10;;;;;;;1.00;1.00;;;;;;;;;;10332606;28;20248;-70
2023/12/28 05:11:11;;;;;;;2.77;1.33;;;;;;;;;;10331349;28;20720;-69
2023/12/28 05:16:12;;;;;;;2.37;1.40;;;;;;;;;;10330332;28;20304;-70
2023/12/28 05:21:13;;;;;;;1.37;1.27;;;;;;;;;;10344413;28;20186;-70
2023/12/28 05:26:13;;;;;;;2.70;1.50;;;;;;;;;;10331939;28;20214;-70
2023/12/28 05:31:14;;;;;;;1.47;1.37;;;;;;;;;;10332262;28;20772;-70
2023/12/28 05:36:14;;;;;;;2.80;1.37;;;;;;;;;;10329853;28;20217;-70
2023/12/28 05:41:14;;;;;;;2.50;1.53;;;;;;;;;;10331728;28;20190;-70
2023/12/28 05:46:14;;;;;;;1.70;1.13;;;;;;;;;;10331680;28;20665;-70
2023/12/28 05:51:14;;;;;;;1.60;1.20;;;;;;;;;;10331141;28;20217;-70
2023/12/28 05:56:14;;;;;;;2.77;1.30;;;;;;;;;;10334608;28;20261;-70
2023/12/28 06:01:15;;;;;;;1.93;1.60;;;;;;;;;;10336323;28;20198;-70
2023/12/28 06:06:15;;;;;;;1.60;1.30;;;;;;;;;;10330816;28;20249;-70
2023/12/28 06:11:15;;;;;;;3.43;1.27;;;;;;;;;;10328912;28;20244;-69
2023/12/28 06:16:15;;;;;;;3.60;1.67;;;;;;;;;;10330368;28;20240;-70
2023/12/28 06:21:15;;;;;;;2.23;1.30;;;;;;;;;;10330258;28;20649;-70
2023/12/28 06:26:16;;;;;;;2.17;1.50;;;;;;;;;;10329655;28;20603;-69
2023/12/28 06:31:16;;;;;;;3.00;1.70;;;;;;;;;;10327105;28;20200;-69
2023/12/28 06:36:17;;;;;;;3.50;1.33;;;;;;;;;;10329431;28;20226;-70
2023/12/28 06:41:17;;;;;;;2.07;1.33;;;;;;;;;;10329402;28;20217;-70
2023/12/28 06:46:17;;;;;;;2.03;1.50;;;;;;;;;;10328826;28;20213;-69
2023/12/28 06:51:18;;;;;;;3.57;1.40;;;;;;;;;;10327300;28;20198;-69
2023/12/28 06:56:18;;;;;;;1.70;1.40;;;;;;;;;;10328457;28;20221;-70
2023/12/28 07:01:19;;;;;;;3.27;1.80;;;;;;;;;;10342487;28;20642;-69
2023/12/28 07:06:19;;;;;;;2.93;1.70;;;;;;;;;;10325761;28;20225;-70
2023/12/28 07:11:19;;;;;;;7.60;2.43;;;;;;;;;;10323905;28;20637;-70
2023/12/28 07:16:19;;;;;;;5.50;1.70;;;;;;;;;;10323398;28;20613;-70
2023/12/28 07:21:19;;;;;;;29.00;12.17;;;;;;;;;;10327396;28;20637;-69
2023/12/28 07:26:19;;;;;;;4.13;3.13;;;;;;;;;;10314631;28;20594;-69
2023/12/28 07:31:26;;;;;;;6.37;4.97;;;;;;;;;;10316205;28;20205;-70
2023/12/28 07:36:26;;;;;;;3.07;1.80;;;;;;;;;;10327725;28;20226;-69
2023/12/28 07:41:26;;;;;;;5.23;2.47;;;;;;;;;;10326936;28;20616;-69
2023/12/28 07:46:27;;;;;;;2.57;1.63;;;;;;;;;;10319191;28;20212;-69
2023/12/28 07:51:27;;;;;;;2.77;2.00;;;;;;;;;;10319362;28;20284;-69
2023/12/28 07:56:27;;;;;;;2.30;1.63;;;;;;;;;;10325109;28;20218;-70
2023/12/28 08:01:27;;;;;;;5.47;3.80;;;;;;;;;;10318259;28;20189;-69
2023/12/28 08:06:31;;;;;;;3.20;2.40;;;;;;;;;;10323861;28;20802;-70
2023/12/28 08:11:31;;;;;;;5.27;2.93;;;;;;;;;;10325302;28;20589;-69
2023/12/28 08:16:31;;;;;;;2.57;1.60;;;;;;;;;;10320829;28;20238;-69
2023/12/28 08:21:31;;;;;;;6.80;3.43;;;;;;;;;;10324914;28;20194;-69
2023/12/28 08:26:32;;;;;;;3.10;2.00;;;;;;;;;;10325056;28;20218;-69
2023/12/28 08:31:32;;;;;;;9.00;3.83;;;;;;;;;;10320626;28;20210;-69
2023/12/28 08:36:33;;;;;;;2.27;1.90;;;;;;;;;;10316939;28;20272;-69
2023/12/28 08:41:33;;;;;;;3.07;2.27;;;;;;;;;;10324441;28;20196;-69
2023/12/28 08:46:33;;;;;;;7.57;4.03;;;;;;;;;;10324584;28;20209;-70
2023/12/28 08:51:33;;;;;;;11.00;8.13;;;;;;;;;;10326683;28;20203;-69
2023/12/28 08:56:34;;;;;;;4.03;2.20;;;;;;;;;;10326534;28;20218;-69
2023/12/28 09:01:34;;;;;;;2.10;1.80;;;;;;;;;;10329457;28;20190;-70
2023/12/28 09:06:35;;;;;;;3.80;1.63;;;;;;;;;;10323394;28;20476;-69
2023/12/28 09:11:35;;;;;;;2.03;1.83;;;;;;;;;;10326242;28;20206;-70
2023/12/28 09:16:36;;;;;;;1.77;1.52;;;;;;;;;;10330955;28;20276;-70
2023/12/28 09:21:36;;;;;;;2.03;1.60;;;;;;;;;;10331501;28;20600;-69
2023/12/28 09:26:36;;;;;;;1.50;1.30;;;;;;;;;;10327049;28;20221;-70
2023/12/28 09:31:37;;;;;;;3.20;1.60;;;;;;;;;;10313877;28;20197;-68
2023/12/28 09:36:37;;;;;;;2.47;1.50;;;;;;;;;;10322743;28;20706;-69
2023/12/28 09:41:40;;;;;;;2.13;1.83;;;;;;;;;;10329382;28;20399;-68
2023/12/28 09:46:41;;;;;;;3.17;1.70;;;;;;;;;;10327573;28;20218;-68
2023/12/28 09:51:41;;;;;;;1.63;1.53;;;;;;;;;;10333763;22;20230;-66
2023/12/28 09:56:41;;;;;;;1.60;1.50;;;;;;;;;;10324293;28;20194;-67
2023/12/28 10:01:42;;;;;;;2.93;1.50;;;;;;;;;;10328607;28;20221;-67
2023/12/28 10:06:43;;;;;;;2.00;1.70;;;;;;;;;;10328629;28;20274;-66
2023/12/28 10:11:43;;;;;;;2.30;1.60;;;;;;;;;;10320711;28;20214;-66
2023/12/28 10:16:43;;;;;;;5.43;1.50;;;;;;;;;;10327463;28;20198;-66
2023/12/28 10:21:43;;;;;;;2.50;1.50;;;;;;;;;;10327210;28;20224;-66
2023/12/28 10:26:43;;;;;;;3.53;1.13;;;;;;;;;;10325690;28;20582;-66
2023/12/28 10:31:44;;;;;;;1.93;1.53;;;;;;;;;;10324489;28;20214;-66
2023/12/28 10:36:45;;;;;;;3.37;1.60;;;;;;;;;;10326640;28;20192;-66
2023/12/28 10:41:49;;;;;;;3.63;1.40;;;;;;;;;;10322581;28;20218;-66
2023/12/28 10:46:51;;;;;;;4.43;1.57;;;;;;;;;;10326598;28;20202;-66
2023/12/28 10:51:52;;;;;;;1.73;1.60;;;;;;;;;;10324166;28;20269;-67
2023/12/28 10:56:59;;;;;;;2.70;1.40;;;;;;;;;;10326859;28;20190;-65
2023/12/28 11:02:01;;;;;;;1.47;1.20;;;;;;;;;;10325090;28;20238;-68
2023/12/28 11:07:01;;;;;;;1.90;1.30;;;;;;;;;;10326038;28;20202;-67
2023/12/28 11:12:02;;;;;;;3.60;1.80;;;;;;;;;;10320584;28;20207;-68
2023/12/28 11:17:03;;;;;;;2.73;1.80;;;;;;;;;;10325167;28;20270;-67
2023/12/28 11:22:04;;;;;;;2.07;1.40;;;;;;;;;;10325724;28;20210;-67
2023/12/28 11:27:05;;;;;;;2.00;1.43;;;;;;;;;;10322512;28;20190;-67
2023/12/28 11:32:07;;;;;;;4.70;1.87;;;;;;;;;;10325455;28;20304;-66
2023/12/28 11:37:12;;;;;;;2.67;1.40;;;;;;;;;;10325728;28;20200;-66
2023/12/28 11:42:18;;;;;;;2.07;1.50;;;;;;;;;;10321360;28;20206;-67
2023/12/28 11:47:22;;;;;;;1.80;1.50;;;;;;;;;;10319753;28;20237;-67
2023/12/28 11:52:23;;;;;;;2.23;1.60;;;;;;;;;;10324949;28;20321;-68
2023/12/28 11:57:24;;;;;;;2.73;1.37;;;;;;;;;;10321627;28;20200;-67
2023/12/28 12:02:25;;;;;;;1.40;1.23;;;;;;;;;;10320738;28;20210;-66
2023/12/28 12:07:25;;;;;;;1.57;1.47;;;;;;;;;;10322688;28;20280;-67
2023/12/28 12:12:26;;;;;;;2.07;1.60;;;;;;;;;;10323513;28;20236;-67
2023/12/28 12:17:26;;;;;;;2.20;1.60;;;;;;;;;;10322002;28;20273;-67
2023/12/28 12:22:26;;;;;;;1.93;1.57;;;;;;;;;;10323470;28;20268;-67
2023/12/28 12:27:26;;;;;;;1.53;1.27;;;;;;;;;;10322520;28;20206;-69
2023/12/28 12:32:27;;;;;;;2.97;1.30;;;;;;;;;;10331106;28;20222;-68
2023/12/28 12:37:27;;;;;;;2.13;1.53;;;;;;;;;;10331394;28;20194;-69
2023/12/28 12:42:27;;;;;;;2.27;1.50;;;;;;;;;;10330326;28;20214;-68
2023/12/28 12:47:32;;;;;;;1.73;1.53;;;;;;;;;;10328999;28;20212;-68
2023/12/28 12:52:32;;;;;;;2.17;1.67;;;;;;;;;;10327681;28;20681;-68
2023/12/28 12:57:32;;;;;;;3.33;1.60;;;;;;;;;;10326482;28;20194;-68
2023/12/28 13:02:33;;;;;;;2.10;1.70;;;;;;;;;;10329278;28;20470;-68
2023/12/28 13:07:33;;;;;;;4.90;3.17;;;;;;;;;;10330698;28;20197;-68
2023/12/28 13:12:34;;;;;;;1.50;1.27;;;;;;;;;;10329230;28;20233;-67
2023/12/28 13:17:35;;;;;;;4.70;1.83;;;;;;;;;;10328146;28;20198;-68
2023/12/28 13:22:36;;;;;;;1.43;1.33;;;;;;;;;;10325455;28;20704;-68
2023/12/28 13:27:36;;;;;;;3.60;1.50;;;;;;;;;;10326539;28;20202;-68
2023/12/28 13:32:36;;;;;;;4.50;2.60;;;;;;;;;;10329241;28;20234;-68
2023/12/28 13:37:36;;;;;;;2.93;1.80;;;;;;;;;;10319898;28;20281;-69
2023/12/28 13:42:36;;;;;;;2.60;2.07;;;;;;;;;;10324374;28;20226;-68
2023/12/28 13:47:37;;;;;;;1.77;1.20;;;;;;;;;;10329333;28;20597;-67
2023/12/28 13:52:37;;;;;;;1.40;1.07;;;;;;;;;;10324211;28;20404;-67
2023/12/28 13:57:37;;;;;;;1.57;1.23;;;;;;;;;;10328600;28;20203;-68
2023/12/28 14:02:37;;;;;;;1.67;1.50;;;;;;;;;;10328951;28;20218;-68
2023/12/28 14:07:37;;;;;;;18.43;9.80;;;;;;;;;;10328088;28;20189;-67
2023/12/28 14:12:37;;;;;;;1.93;1.50;;;;;;;;;;10326772;28;20229;-67
2023/12/28 14:17:39;;;;;;;4.10;2.70;;;;;;;;;;10327481;28;20183;-67
2023/12/28 14:22:39;;;;;;;4.10;3.70;;;;;;;;;;10328200;28;20218;-67
2023/12/28 14:27:40;;;;;;;2.80;2.50;;;;;;;;;;10323471;28;20190;-68
2023/12/28 14:32:40;;;;;;;3.83;1.30;;;;;;;;;;10325376;28;20230;-67
2023/12/28 14:37:40;;;;;;;1.75;1.42;;;;;;;;;;10326730;28;20194;-67
2023/12/28 14:42:40;;;;;;;3.43;2.70;;;;;;;;;;10327271;28;20356;-67
2023/12/28 14:47:41;;;;;;;2.33;1.40;;;;;;;;;;10327312;28;20206;-67
2023/12/28 14:52:44;;;;;;;2.40;1.80;;;;;;;;;;10323885;28;20245;-67
2023/12/28 14:57:44;;;;;;;1.70;1.60;;;;;;;;;;10317305;28;20205;-67
2023/12/28 15:02:44;;;;;;;4.90;2.33;;;;;;;;;;10321466;28;20599;-67
2023/12/28 15:07:47;;;;;;;5.93;4.07;;;;;;;;;;10318101;28;20224;-67
2023/12/28 15:12:48;;;;;;;4.00;2.60;;;;;;;;;;10321433;28;20280;-68
2023/12/28 15:17:48;;;;;;;4.77;2.53;;;;;;;;;;10324812;28;20197;-67
2023/12/28 15:22:49;;;;;;;1.60;1.50;;;;;;;;;;10325126;28;20206;-68
2023/12/28 15:27:49;;;;;;;1.40;1.30;;;;;;;;;;10320308;28;20244;-68
2023/12/28 15:32:49;;;;;;;1.40;1.30;;;;;;;;;;10319423;28;20217;-67
2023/12/28 15:37:52;;;;;;;1.43;1.20;;;;;;;;;;10324489;28;20186;-67
2023/12/28 15:42:52;;;;;;;3.40;1.70;;;;;;;;;;10321984;28;20616;-67
2023/12/28 15:47:53;;;;;;;1.37;1.23;;;;;;;;;;10322874;28;20203;-68
2023/12/28 15:52:53;;;;;;;3.20;1.50;;;;;;;;;;10312506;28;20230;-67
2023/12/28 15:57:53;;;;;;;1.33;1.20;;;;;;;;;;10323204;28;20649;-67
2023/12/28 16:02:54;;;;;;;6.87;4.43;;;;;;;;;;10325902;28;20214;-67
2023/12/28 16:07:54;;;;;;;1.63;1.53;;;;;;;;;;10331450;28;20335;-68
2023/12/28 16:12:54;;;;;;;1.57;1.20;;;;;;;;;;10332431;28;20230;-68
2023/12/28 16:17:56;;;;;;;1.90;1.40;;;;;;;;;;10332457;28;20189;-67
2023/12/28 16:22:57;;;;;;;2.97;2.33;;;;;;;;;;10328890;28;20320;-67
2023/12/28 16:27:57;;;;;;;4.27;2.77;;;;;;;;;;10330654;28;20201;-67
2023/12/28 16:32:57;;;;;;;7.37;3.83;;;;;;;;;;10326017;28;21003;-67
2023/12/28 16:37:57;;;;;;;3.43;1.60;;;;;;;;;;10330889;28;20593;-67
2023/12/28 16:42:58;;;;;;;3.10;1.60;;;;;;;;;;10328736;28;20210;-67
2023/12/28 16:47:58;;;;;;;2.60;2.10;;;;;;;;;;10330609;28;20194;-67
2023/12/28 16:52:58;;;;;;;3.40;1.87;;;;;;;;;;10330220;28;20379;-67
2023/12/28 16:57:58;;;;;;;9.83;7.03;;;;;;;;;;10330030;28;20256;-67
2023/12/28 17:02:58;;;;;;;7.83;3.30;;;;;;;;;;10328547;28;20221;-66
2023/12/28 17:07:59;;;;;;;2.83;2.20;;;;;;;;;;10329636;28;20301;-67
2023/12/28 17:12:59;;;;;;;1.67;1.57;;;;;;;;;;10328873;28;20232;-67
2023/12/28 17:17:59;;;;;;;2.57;2.17;;;;;;;;;;10330170;28;20244;-67
2023/12/28 17:23:01;;;;;;;3.53;1.90;;;;;;;;;;10326955;28;20461;-66
2023/12/28 17:28:05;;;;;;;2.10;1.67;;;;;;;;;;10328029;28;20281;-67
2023/12/28 17:33:06;;;;;;;14.27;8.23;;;;;;;;;;10328185;28;20222;-67
2023/12/28 17:38:06;;;;;;;2.97;2.47;;;;;;;;;;10325147;28;20202;-67
2023/12/28 17:43:18;;;;;;;2.27;2.07;;;;;;;;;;10324773;28;20631;-67
2023/12/28 17:48:24;;;;;;;9.73;5.17;;;;;;;;;;10325843;28;20300;-67
2023/12/28 17:53:25;;;;;;;2.33;1.97;;;;;;;;;;10326214;28;20719;-67
2023/12/28 17:58:25;;;;;;;2.10;1.90;;;;;;;;;;10324700;28;20186;-67
2023/12/28 18:03:25;;;;;;;1.60;1.40;;;;;;;;;;10324816;28;20218;-68
2023/12/28 18:08:26;;;;;;;2.17;1.97;;;;;;;;;;10326254;28;20248;-67
2023/12/28 18:13:26;;;;;;;1.57;1.47;;;;;;;;;;10317714;23;21135;-69
2023/12/28 18:18:26;;;;;;;6.50;2.93;;;;;;;;;;10285858;28;20206;-70
2023/12/28 18:23:26;;;;;;;8.27;5.67;;;;;;;;;;10283065;28;20226;-71
2023/12/28 18:28:27;;;;;;;3.20;2.53;;;;;;;;;;10279866;28;20198;-70
2023/12/28 18:33:27;;;;;;;24.73;15.40;;;;;;;;;;10284598;28;20230;-71
2023/12/28 18:38:27;;;;;;;3.37;2.13;;;;;;;;;;10285803;28;20234;-71
2023/12/28 18:43:28;;;;;;;4.13;2.97;;;;;;;;;;10282518;28;20211;-70
2023/12/28 18:48:28;;;;;;;43.67;13.40;;;;;;;;;;10280415;28;20207;-70
2023/12/28 18:53:28;;;;;;;12.10;6.97;;;;;;;;;;10284920;28;20845;-69
2023/12/28 18:58:28;;;;;;;7.03;4.00;;;;;;;;;;10271325;28;20202;-70
2023/12/28 19:03:29;;;;;;;2.47;1.93;;;;;;;;;;10271337;28;20294;-70
2023/12/28 19:08:29;;;;;;;3.40;2.27;;;;;;;;;;10273595;28;20238;-71
2023/12/28 19:13:29;;;;;;;5.53;3.50;;;;;;;;;;10279963;28;20305;-71
2023/12/28 19:18:29;;;;;;;10.83;4.00;;;;;;;;;;10284221;28;20187;-70
2023/12/28 19:23:29;;;;;;;5.10;3.27;;;;;;;;;;10279286;28;20233;-69
2023/12/28 19:28:30;;;;;;;15.53;6.70;;;;;;;;;;10278912;28;20201;-71
2023/12/28 19:33:30;;;;;;;3.23;2.23;;;;;;;;;;10270826;28;20280;-70
2023/12/28 19:38:30;;;;;;;7.77;4.60;;;;;;;;;;10279869;28;20195;-70
2023/12/28 19:43:30;;;;;;;4.13;2.57;;;;;;;;;;10287258;28;20287;-70
2023/12/28 19:48:30;;;;;;;3.33;1.77;;;;;;;;;;10271865;28;20585;-70
2023/12/28 19:53:30;;;;;;;1.87;1.60;;;;;;;;;;10279440;28;20233;-70
2023/12/28 19:58:31;;;;;;;3.27;2.20;;;;;;;;;;10286727;28;20206;-71
2023/12/28 20:03:31;;;;;;;3.27;1.73;;;;;;;;;;10290552;28;20226;-69
2023/12/28 20:08:31;;;;;;;2.40;2.20;;;;;;;;;;10284409;28;20229;-71
2023/12/28 20:13:31;;;;;;;2.37;1.60;;;;;;;;;;10286268;28;20250;-71
2023/12/28 20:18:32;;;;;;;5.63;2.20;;;;;;;;;;10285404;28;20191;-71
2023/12/28 20:23:32;;;;;;;1.60;1.30;;;;;;;;;;10279374;28;20219;-70
2023/12/28 20:28:32;;;;;;;2.90;2.20;;;;;;;;;;10276647;28;20593;-71
2023/12/28 20:33:32;;;;;;;2.33;1.57;;;;;;;;;;10285215;28;20237;-71
2023/12/28 20:38:32;;;;;;;2.55;1.30;;;;;;;;;;10286401;28;20256;-71
2023/12/28 20:43:33;;;;;;;5.03;1.40;;;;;;;;;;10283974;28;20562;-70
2023/12/28 20:48:33;;;;;;;1.60;1.50;;;;;;;;;;10287326;28;20206;-70
2023/12/28 20:53:34;;;;;;;1.60;1.20;;;;;;;;;;10279946;28;20313;-70
2023/12/28 20:58:35;;;;;;;1.57;1.10;;;;;;;;;;10282983;28;20277;-70
2023/12/28 21:03:35;;;;;;;2.00;1.40;;;;;;;;;;10290140;28;20244;-69
2023/12/28 21:08:35;;;;;;;2.10;1.53;;;;;;;;;;10286059;28;20299;-70
2023/12/28 21:13:39;;;;;;;4.57;3.07;;;;;;;;;;10292076;28;20288;-70
2023/12/28 21:18:39;;;;;;;1.70;1.60;;;;;;;;;;10291461;28;20199;-70
2023/12/28 21:23:39;;;;;;;4.60;2.55;;;;;;;;;;10287997;28;20787;-70
2023/12/28 21:28:39;;;;;;;1.80;1.70;;;;;;;;;;10291147;28;20198;-70
2023/12/28 21:33:42;;;;;;;1.20;1.10;;;;;;;;;;10289525;28;20210;-69
2023/12/28 21:38:42;;;;;;;2.40;1.30;;;;;;;;;;10283654;28;20183;-69
2023/12/28 21:43:42;;;;;;;2.10;1.40;;;;;;;;;;10283656;28;20737;-70
2023/12/28 21:48:42;;;;;;;1.60;1.33;;;;;;;;;;10285313;28;20203;-70
2023/12/28 21:53:42;;;;;;;1.73;1.63;;;;;;;;;;10290030;28;20524;-70
2023/12/28 21:58:43;;;;;;;1.63;1.53;;;;;;;;;;10287698;28;20202;-69
2023/12/28 22:03:43;;;;;;;2.13;1.50;;;;;;;;;;10289537;28;20269;-70
2023/12/28 22:08:43;;;;;;;3.57;2.37;;;;;;;;;;10289556;28;20199;-69
2023/12/28 22:13:44;;;;;;;4.03;2.50;;;;;;;;;;10286798;28;20844;-70
2023/12/28 22:18:45;;;;;;;2.40;1.83;;;;;;;;;;10284027;28;20195;-70
2023/12/28 22:23:46;;;;;;;4.53;2.80;;;;;;;;;;10284689;28;20481;-69
2023/12/28 22:28:47;;;;;;;5.67;2.73;;;;;;;;;;10289334;28;20245;-70
2023/12/28 22:33:47;;;;;;;7.93;3.40;;;;;;;;;;10289403;28;20284;-71
2023/12/28 22:38:47;;;;;;;10.67;4.20;;;;;;;;;;10289270;28;20199;-69
2023/12/28 22:43:47;;;;;;;6.03;2.70;;;;;;;;;;10289319;28;20301;-71
2023/12/28 22:48:48;;;;;;;9.27;4.00;;;;;;;;;;10289292;28;20449;-71
2023/12/28 22:53:48;;;;;;;11.17;5.23;;;;;;;;;;10289873;28;20226;-70
2023/12/28 22:58:48;;;;;;;4.40;1.97;;;;;;;;;;10288750;28;20202;-69
2023/12/28 23:03:49;;;;;;;2.70;1.70;;;;;;;;;;10288189;28;20207;-71
2023/12/28 23:08:49;;;;;;;3.57;1.23;;;;;;;;;;10288471;28;20477;-70
2023/12/28 23:13:51;;;;;;;1.27;1.17;;;;;;;;;;10435627;23;21149;-71
2023/12/28 23:18:51;;;;;;;3.03;1.10;;;;;;;;;;10327722;28;20201;-71
2023/12/28 23:23:51;;;;;;;1.57;1.20;;;;;;;;;;10310306;28;20218;-71
2023/12/28 23:28:51;;;;;;;1.93;1.50;;;;;;;;;;10327550;28;20205;-71
2023/12/28 23:33:52;;;;;;;2.00;1.40;;;;;;;;;;10327269;28;20222;-71
2023/12/28 23:38:52;;;;;;;4.20;1.40;;;;;;;;;;10326939;28;20240;-70
2023/12/28 23:43:52;;;;;;;1.73;1.40;;;;;;;;;;10327417;28;20214;-71
2023/12/28 23:48:52;;;;;;;1.17;1.07;;;;;;;;;;10326821;28;20604;-71
2023/12/28 23:53:52;;;;;;;2.60;1.43;;;;;;;;;;10326643;28;20232;-70
2023/12/28 23:58:52;;;;;;;1.17;1.17;;;;;;;;;;10326819;28;20204;-71
